createdAt,value
2023-03-12T00:01:23.100Z,11.32
2023-03-12T00:03:50.982Z,13.77
2023-03-12T00:06:20.149Z,15.10
2023-03-12T00:08:48.205Z,12.35
2023-03-12T00:11:16.865Z,14.30
2023-03-12T00:13:44.612Z,11.50
2023-03-12T00:16:13.773Z,10.38
2023-03-12T00:18:42.062Z,12.50
2023-03-12T00:21:10.166Z,12.88
2023-03-12T00:23:39.534Z,15.48
2023-03-12T00:26:08.398Z,14.32
2023-03-12T00:28:36.100Z,14.93
2023-03-12T00:31:04.401Z,13.85
2023-03-12T00:33:32.129Z,15.45
2023-03-12T00:36:01.380Z,12.77
2023-03-12T00:38:29.147Z,14.95
2023-03-12T00:40:58.216Z,14.45
2023-03-12T00:43:25.939Z,11.20
2023-03-12T00:45:53.756Z,13.30
2023-03-12T00:48:21.621Z,13.75
2023-03-12T00:50:49.420Z,12.57
2023-03-12T00:53:17.235Z,13.68
2023-03-12T00:55:45.008Z,13.38
2023-03-12T00:58:14.163Z,15.00
2023-03-12T01:00:41.944Z,12.88
2023-03-12T01:03:09.655Z,12.00
2023-03-12T01:05:37.909Z,13.27
2023-03-12T01:08:05.851Z,15.75
2023-03-12T01:10:33.574Z,11.35
2023-03-12T01:13:01.268Z,12.82
2023-03-12T01:15:30.899Z,11.32
2023-03-12T01:17:58.680Z,12.68
2023-03-12T01:20:26.719Z,12.60
2023-03-12T01:22:54.426Z,11.90
2023-03-12T01:25:22.321Z,11.18
2023-03-12T01:27:50.074Z,11.90
2023-03-12T01:30:17.853Z,17.60
2023-03-12T01:32:46.994Z,13.13
2023-03-12T01:35:14.765Z,14.68
2023-03-12T01:37:42.579Z,13.40
2023-03-12T01:40:15.154Z,14.77
2023-03-12T01:42:43.131Z,13.73
2023-03-12T01:45:25.956Z,14.23
2023-03-12T01:47:55.152Z,17.42
2023-03-12T01:50:23.196Z,13.93
2023-03-12T01:52:50.960Z,11.25
2023-03-12T01:55:19.007Z,13.93
2023-03-12T01:57:51.284Z,18.70
2023-03-12T02:00:21.137Z,17.70
2023-03-12T02:02:50.647Z,22.90
2023-03-12T02:05:26.330Z,25.52
2023-03-12T02:07:54.918Z,24.77
2023-03-12T02:10:23.046Z,19.77
2023-03-12T02:12:50.994Z,16.23
2023-03-12T02:15:18.975Z,14.57
2023-03-12T02:17:47.195Z,15.52
2023-03-12T02:20:16.348Z,13.43
2023-03-12T02:22:50.475Z,16.67
2023-03-12T02:25:31.012Z,15.50
2023-03-12T02:27:59.771Z,14.13
2023-03-12T02:30:28.888Z,16.80
2023-03-12T02:32:57.141Z,15.50
2023-03-12T02:35:25.000Z,14.70
2023-03-12T02:37:54.179Z,15.23
2023-03-12T02:40:24.642Z,12.95
2023-03-12T02:42:54.833Z,15.48
2023-03-12T02:45:22.900Z,17.05
2023-03-12T02:47:50.717Z,18.42
2023-03-12T02:50:18.460Z,19.27
2023-03-12T02:52:46.324Z,26.30
2023-03-12T02:55:14.110Z,27.80
2023-03-12T02:57:43.643Z,27.05
2023-03-12T03:00:16.809Z,23.70
2023-03-12T03:02:50.026Z,23.55
2023-03-12T03:05:18.062Z,19.67
2023-03-12T03:07:45.876Z,23.25
2023-03-12T03:10:15.545Z,17.58
2023-03-12T03:12:43.370Z,22.20
2023-03-12T03:15:11.884Z,22.13
2023-03-12T03:17:41.654Z,25.63
2023-03-12T03:20:11.419Z,22.92
2023-03-12T03:22:39.354Z,25.13
2023-03-12T03:25:07.544Z,23.48
2023-03-12T03:27:35.527Z,25.15
2023-03-12T03:30:03.295Z,23.58
2023-03-12T03:32:33.923Z,23.75
2023-03-12T03:35:04.164Z,24.85
2023-03-12T03:37:32.147Z,30.90
2023-03-12T03:40:00.411Z,26.27
2023-03-12T03:42:28.311Z,30.35
2023-03-12T03:44:56.191Z,28.33
2023-03-12T03:47:24.020Z,27.15
2023-03-12T03:49:51.753Z,29.08
2023-03-12T03:52:20.978Z,28.02
2023-03-12T03:54:48.790Z,30.27
2023-03-12T03:57:16.610Z,33.08
2023-03-12T03:59:44.301Z,36.20
2023-03-12T04:02:12.118Z,37.28
2023-03-12T04:04:40.776Z,45.38
2023-03-12T04:07:09.755Z,39.08
2023-03-12T04:09:39.619Z,38.63
2023-03-12T04:12:07.815Z,39.90
2023-03-12T04:14:40.462Z,42.90
2023-03-12T04:17:08.492Z,35.58
2023-03-12T04:19:37.014Z,36.70
2023-03-12T04:22:06.328Z,41.00
2023-03-12T04:24:34.097Z,35.97
2023-03-12T04:27:03.491Z,39.22
2023-03-12T04:29:31.682Z,33.50
2023-03-12T04:31:59.375Z,37.42
2023-03-12T04:34:27.200Z,39.55
2023-03-12T04:36:56.074Z,34.53
2023-03-12T04:39:24.283Z,35.90
2023-03-12T04:41:53.539Z,38.70
2023-03-12T04:44:22.772Z,38.38
2023-03-12T04:46:50.808Z,34.00
2023-03-12T04:49:22.078Z,37.50
2023-03-12T04:51:50.168Z,40.20
2023-03-12T04:54:21.026Z,37.25
2023-03-12T04:56:49.577Z,40.22
2023-03-12T04:59:17.552Z,34.50
2023-03-12T05:01:48.159Z,32.58
2023-03-12T05:04:21.211Z,30.10
2023-03-12T05:06:50.804Z,28.73
2023-03-12T05:09:18.566Z,27.42
2023-03-12T05:11:46.350Z,27.60
2023-03-12T05:14:17.096Z,25.45
2023-03-12T05:16:48.044Z,25.20
2023-03-12T05:19:16.140Z,25.02
2023-03-12T05:21:44.266Z,21.52
2023-03-12T05:24:12.421Z,22.73
2023-03-12T05:26:40.291Z,20.63
2023-03-12T05:29:17.941Z,19.17
2023-03-12T05:31:46.012Z,17.48
2023-03-12T05:34:15.166Z,17.90
2023-03-12T05:36:45.342Z,18.65
2023-03-12T05:39:15.673Z,19.70
2023-03-12T05:41:44.024Z,22.52
2023-03-12T05:44:16.098Z,19.73
2023-03-12T05:46:46.802Z,18.95
2023-03-12T05:49:16.028Z,20.50
2023-03-12T05:51:44.252Z,22.70
2023-03-12T05:54:12.058Z,23.42
2023-03-12T05:56:40.497Z,22.45
2023-03-12T05:59:10.512Z,19.23
2023-03-12T06:01:39.531Z,16.95
2023-03-12T06:04:07.421Z,19.73
2023-03-12T06:06:37.695Z,19.55
2023-03-12T06:09:06.555Z,19.48
2023-03-12T06:11:34.700Z,17.70
2023-03-12T06:14:02.901Z,19.85
2023-03-12T06:16:31.768Z,19.13
2023-03-12T06:19:00.417Z,18.63
2023-03-12T06:21:29.273Z,17.77
2023-03-12T06:23:58.591Z,17.40
2023-03-12T06:26:31.273Z,15.88
2023-03-12T06:28:59.006Z,16.45
2023-03-12T06:31:26.823Z,16.50
2023-03-12T06:33:54.739Z,15.50
2023-03-12T06:36:23.009Z,15.23
2023-03-12T06:38:50.778Z,16.88
2023-03-12T06:41:21.081Z,23.67
2023-03-12T06:43:49.253Z,14.70
2023-03-12T06:46:18.678Z,15.75
2023-03-12T06:48:46.659Z,14.18
2023-03-12T06:51:15.182Z,16.30
2023-03-12T06:53:42.998Z,13.30
2023-03-12T06:56:11.322Z,15.48
2023-03-12T06:58:40.446Z,13.30
2023-03-12T07:01:08.281Z,13.30
2023-03-12T07:03:36.113Z,14.40
2023-03-12T07:06:04.454Z,13.45
2023-03-12T07:08:32.179Z,13.23
2023-03-12T07:11:01.976Z,11.93
2023-03-12T07:13:30.163Z,17.88
2023-03-12T07:15:59.241Z,14.93
2023-03-12T07:18:27.089Z,14.95
2023-03-12T07:20:54.951Z,13.20
2023-03-12T07:23:23.508Z,14.18
2023-03-12T07:25:51.394Z,16.23
2023-03-12T07:28:19.118Z,16.60
2023-03-12T07:30:50.473Z,12.82
2023-03-12T07:33:20.595Z,12.15
2023-03-12T07:35:51.523Z,17.45
2023-03-12T07:38:19.707Z,14.60
2023-03-12T07:40:51.455Z,14.75
2023-03-12T07:43:21.546Z,14.10
2023-03-12T07:45:50.584Z,10.73
2023-03-12T07:48:20.200Z,10.60
2023-03-12T07:50:48.733Z,13.85
2023-03-12T07:53:16.668Z,11.80
2023-03-12T07:55:46.143Z,11.35
2023-03-12T07:58:14.297Z,14.13
2023-03-12T08:00:42.177Z,11.18
2023-03-12T08:03:10.354Z,10.02
2023-03-12T08:05:39.575Z,9.18
2023-03-12T08:08:07.752Z,10.32
2023-03-12T08:10:35.514Z,12.65
2023-03-12T08:13:03.279Z,10.57
2023-03-12T08:15:31.006Z,11.07
2023-03-12T08:17:59.401Z,10.57
2023-03-12T08:20:27.903Z,10.57
2023-03-12T08:22:57.343Z,8.85
2023-03-12T08:25:25.143Z,7.95
2023-03-12T08:27:53.001Z,9.07
2023-03-12T08:30:20.779Z,8.63
2023-03-12T08:32:48.646Z,9.70
2023-03-12T08:35:16.485Z,10.75
2023-03-12T08:37:44.261Z,8.25
2023-03-12T08:40:13.885Z,10.68
2023-03-12T08:42:41.883Z,7.80
2023-03-12T08:45:10.198Z,11.07
2023-03-12T08:47:39.872Z,9.50
2023-03-12T08:50:08.781Z,9.93
2023-03-12T08:52:36.457Z,12.70
2023-03-12T08:55:05.918Z,9.10
2023-03-12T08:57:35.726Z,9.10
2023-03-12T09:00:05.843Z,11.13
2023-03-12T09:02:33.665Z,7.05
2023-03-12T09:05:01.445Z,7.68
2023-03-12T09:07:29.120Z,11.48
2023-03-12T09:09:57.085Z,15.68
2023-03-12T09:12:24.847Z,11.68
2023-03-12T09:15:09.251Z,14.93
2023-03-12T09:17:38.829Z,10.00
2023-03-12T09:20:08.542Z,9.75
2023-03-12T09:22:37.088Z,12.82
2023-03-12T09:25:05.017Z,24.00
2023-03-12T09:27:36.294Z,14.27
2023-03-12T09:30:06.627Z,14.95
2023-03-12T09:32:34.952Z,10.75
2023-03-12T09:35:02.889Z,11.43
2023-03-12T09:37:32.318Z,9.23
2023-03-12T09:40:00.095Z,12.25
2023-03-12T09:42:31.247Z,6.97
2023-03-12T09:45:01.360Z,9.48
2023-03-12T09:47:31.645Z,8.32
2023-03-12T09:50:03.733Z,9.93
2023-03-12T09:52:34.619Z,9.93
2023-03-12T09:55:04.065Z,8.35
2023-03-12T09:57:31.834Z,11.73
2023-03-12T09:59:59.591Z,10.40
2023-03-12T10:02:45.191Z,11.07
2023-03-12T10:05:20.039Z,18.08
2023-03-12T10:07:49.657Z,11.25
2023-03-12T10:10:24.631Z,23.88
2023-03-12T10:13:07.769Z,18.48
2023-03-12T10:15:40.560Z,12.80
2023-03-12T10:18:15.561Z,12.35
2023-03-12T10:20:51.064Z,8.48
2023-03-12T10:23:23.480Z,9.40
2023-03-12T10:25:53.807Z,12.00
2023-03-12T10:28:23.029Z,10.18
2023-03-12T10:30:52.894Z,9.65
2023-03-12T10:33:21.069Z,8.50
2023-03-12T10:35:54.514Z,10.10
2023-03-12T10:38:26.193Z,9.38
2023-03-12T10:40:53.962Z,9.57
2023-03-12T10:43:21.650Z,11.05
2023-03-12T10:45:55.338Z,10.85
2023-03-12T10:48:26.801Z,11.93
2023-03-12T10:51:06.084Z,10.40
2023-03-12T10:53:35.483Z,10.65
2023-03-12T10:56:05.535Z,9.15
2023-03-12T10:58:35.564Z,9.98
2023-03-12T11:01:06.432Z,9.65
2023-03-12T11:03:34.919Z,8.05
2023-03-12T11:06:08.124Z,8.90
2023-03-12T11:08:36.833Z,8.77
2023-03-12T11:11:05.418Z,10.43
2023-03-12T11:13:34.290Z,11.88
2023-03-12T11:16:02.952Z,10.63
2023-03-12T11:18:33.146Z,8.98
2023-03-12T11:21:16.976Z,8.18
2023-03-12T11:23:48.221Z,9.02
2023-03-12T11:26:19.209Z,8.48
2023-03-12T11:28:48.555Z,10.05
2023-03-12T11:31:20.289Z,9.27
2023-03-12T11:33:48.010Z,9.98
2023-03-12T11:36:23.230Z,7.85
2023-03-12T11:38:55.828Z,7.20
2023-03-12T11:41:28.206Z,8.55
2023-03-12T11:44:02.655Z,7.43
2023-03-12T11:46:35.268Z,9.88
2023-03-12T11:49:12.736Z,8.55
2023-03-12T11:51:45.822Z,7.75
2023-03-12T11:54:23.358Z,8.45
2023-03-12T11:56:53.741Z,5.90
2023-03-12T11:59:27.056Z,7.40
2023-03-12T12:01:59.346Z,7.95
2023-03-12T12:04:45.308Z,8.32
2023-03-12T12:07:18.336Z,8.43
2023-03-12T12:09:49.979Z,9.45
2023-03-12T12:12:22.351Z,6.30
2023-03-12T12:14:56.724Z,7.35
2023-03-12T12:17:31.740Z,7.43
2023-03-12T12:20:09.190Z,7.45
2023-03-12T12:22:45.464Z,7.20
2023-03-12T12:25:22.990Z,9.65
2023-03-12T12:27:54.199Z,5.95
2023-03-12T12:30:25.457Z,9.35
2023-03-12T12:33:00.102Z,7.05
2023-03-12T12:35:31.371Z,6.93
2023-03-12T12:38:03.777Z,9.25
2023-03-12T12:40:37.476Z,9.32
2023-03-12T12:43:10.374Z,6.72
2023-03-12T12:45:39.954Z,7.68
2023-03-12T12:48:10.074Z,7.28
2023-03-12T12:50:39.944Z,7.63
2023-03-12T12:53:15.128Z,7.53
2023-03-12T12:55:47.464Z,8.88
2023-03-12T12:58:18.272Z,9.15
2023-03-12T13:00:50.311Z,6.45
2023-03-12T13:03:19.668Z,5.90
2023-03-12T13:05:58.119Z,8.60
2023-03-12T13:08:53.121Z,5.38
2023-03-12T13:11:28.124Z,9.30
2023-03-12T13:14:10.688Z,10.20
2023-03-12T13:16:39.576Z,8.40
2023-03-12T13:19:09.667Z,11.70
2023-03-12T13:21:40.318Z,8.15
2023-03-12T13:24:17.939Z,7.97
2023-03-12T13:26:54.636Z,12.70
2023-03-12T13:29:24.043Z,7.22
2023-03-12T13:31:52.178Z,5.20
2023-03-12T13:34:53.270Z,5.28
2023-03-12T13:37:27.913Z,7.10
2023-03-12T13:39:55.672Z,6.60
2023-03-12T13:42:47.272Z,8.73
2023-03-12T13:45:26.086Z,8.23
2023-03-12T13:47:56.643Z,6.60
2023-03-12T13:50:24.482Z,8.10
2023-03-12T13:52:57.410Z,6.18
2023-03-12T13:55:26.289Z,8.45
2023-03-12T13:57:55.487Z,6.07
2023-03-12T14:00:28.326Z,5.18
2023-03-12T14:02:58.676Z,5.35
2023-03-12T14:05:27.343Z,3.60
2023-03-12T14:08:15.950Z,6.25
2023-03-12T14:10:49.231Z,4.38
2023-03-12T14:13:29.766Z,3.45
2023-03-12T14:16:01.686Z,5.22
2023-03-12T14:18:31.205Z,6.15
2023-03-12T14:20:59.970Z,4.03
2023-03-12T14:23:29.547Z,6.15
2023-03-12T14:25:59.521Z,5.32
2023-03-12T14:28:28.025Z,3.90
2023-03-12T14:30:58.212Z,5.90
2023-03-12T14:33:29.955Z,4.70
2023-03-12T14:35:59.871Z,2.83
2023-03-12T14:38:31.200Z,2.50
2023-03-12T14:41:01.661Z,6.22
2023-03-12T14:43:30.290Z,2.95
2023-03-12T14:45:58.999Z,3.95
2023-03-12T14:48:30.452Z,3.00
2023-03-12T14:50:58.812Z,2.63
2023-03-12T14:53:27.835Z,2.60
2023-03-12T14:56:03.120Z,2.90
2023-03-12T14:58:30.945Z,4.53
2023-03-12T15:00:59.857Z,6.88
2023-03-12T15:03:29.805Z,5.30
2023-03-12T15:05:57.601Z,5.30
2023-03-12T15:08:27.264Z,4.90
2023-03-12T15:10:57.162Z,3.38
2023-03-12T15:13:25.990Z,3.33
2023-03-12T15:15:54.581Z,3.47
2023-03-12T15:18:24.326Z,3.60
2023-03-12T15:20:54.413Z,3.90
2023-03-12T15:23:23.462Z,2.53
2023-03-12T15:26:06.043Z,4.80
2023-03-12T15:28:33.768Z,6.05
2023-03-12T15:31:09.001Z,3.95
2023-03-12T15:33:37.798Z,3.17
2023-03-12T15:36:24.768Z,4.50
2023-03-12T15:38:54.941Z,3.58
2023-03-12T15:41:23.845Z,4.38
2023-03-12T15:43:53.511Z,4.50
2023-03-12T15:46:21.379Z,3.85
2023-03-12T15:48:52.483Z,5.03
2023-03-12T15:51:35.460Z,2.80
2023-03-12T15:54:04.855Z,4.63
2023-03-12T15:56:33.372Z,4.70
2023-03-12T15:59:02.087Z,6.10
2023-03-12T16:01:29.876Z,5.40
2023-03-12T16:03:58.643Z,9.32
2023-03-12T16:06:29.727Z,5.13
2023-03-12T16:08:59.948Z,8.05
2023-03-12T16:11:29.075Z,4.05
2023-03-12T16:13:59.502Z,5.95
2023-03-12T16:16:27.344Z,4.32
2023-03-12T16:18:55.070Z,5.18
2023-03-12T16:21:22.826Z,5.85
2023-03-12T16:23:50.568Z,7.40
2023-03-12T16:26:19.640Z,8.93
2023-03-12T16:28:47.386Z,7.80
2023-03-12T16:31:17.424Z,6.50
2023-03-12T16:33:45.366Z,9.73
2023-03-12T16:36:14.065Z,8.43
2023-03-12T16:38:43.627Z,6.38
2023-03-12T16:41:14.003Z,9.15
2023-03-12T16:43:43.744Z,8.82
2023-03-12T16:46:13.442Z,7.78
2023-03-12T16:48:41.173Z,6.85
2023-03-12T16:51:13.579Z,6.85
2023-03-12T16:53:41.422Z,8.35
2023-03-12T16:56:15.243Z,7.60
2023-03-12T16:58:44.568Z,10.63
2023-03-12T17:01:13.703Z,10.95
2023-03-12T17:03:43.671Z,9.00
2023-03-12T17:06:14.346Z,10.52
2023-03-12T17:08:42.984Z,5.85
2023-03-12T17:11:21.726Z,6.60
2023-03-12T17:13:52.484Z,7.43
2023-03-12T17:16:20.691Z,6.30
2023-03-12T17:18:48.785Z,9.93
2023-03-12T17:21:17.371Z,5.00
2023-03-12T17:23:46.710Z,5.88
2023-03-12T17:26:14.495Z,10.13
2023-03-12T17:28:42.136Z,15.80
2023-03-12T17:31:11.578Z,15.73
2023-03-12T17:33:39.246Z,12.30
2023-03-12T17:36:09.236Z,8.57
2023-03-12T17:38:37.852Z,8.80
2023-03-12T17:41:16.518Z,7.10
2023-03-12T17:43:51.456Z,6.68
2023-03-12T17:46:21.111Z,7.63
2023-03-12T17:48:48.817Z,6.70
2023-03-12T17:51:16.935Z,8.60
2023-03-12T17:53:44.657Z,7.90
2023-03-12T17:56:12.806Z,7.13
2023-03-12T17:58:40.609Z,6.85
2023-03-12T18:01:08.487Z,7.82
2023-03-12T18:03:37.715Z,5.40
2023-03-12T18:06:05.908Z,9.50
2023-03-12T18:08:33.793Z,8.10
2023-03-12T18:11:02.952Z,5.53
2023-03-12T18:13:30.673Z,8.68
2023-03-12T18:15:59.636Z,7.95
2023-03-12T18:18:29.473Z,6.03
2023-03-12T18:20:58.535Z,5.05
2023-03-12T18:23:29.052Z,5.50
2023-03-12T18:25:56.878Z,5.22
2023-03-12T18:28:26.053Z,5.70
2023-03-12T18:30:54.683Z,5.63
2023-03-12T18:33:23.459Z,10.60
2023-03-12T18:35:54.206Z,5.43
2023-03-12T18:38:25.535Z,6.85
2023-03-12T18:40:55.094Z,6.43
2023-03-12T18:43:22.804Z,5.25
2023-03-12T18:45:50.719Z,6.65
2023-03-12T18:48:18.794Z,6.30
2023-03-12T18:50:46.975Z,6.20
2023-03-12T18:53:14.855Z,6.35
2023-03-12T18:55:50.817Z,6.40
2023-03-12T18:58:18.552Z,7.97
2023-03-12T19:00:46.523Z,8.43
2023-03-12T19:03:14.290Z,9.68
2023-03-12T19:05:42.195Z,7.00
2023-03-12T19:08:11.485Z,7.55
2023-03-12T19:10:43.596Z,6.97
2023-03-12T19:13:15.467Z,10.98
2023-03-12T19:15:43.790Z,7.20
2023-03-12T19:18:11.700Z,6.85
2023-03-12T19:20:40.749Z,6.88
2023-03-12T19:23:08.441Z,5.75
2023-03-12T19:25:36.710Z,5.65
2023-03-12T19:28:04.438Z,6.68
2023-03-12T19:30:34.427Z,7.35
2023-03-12T19:33:02.294Z,8.35
2023-03-12T19:35:30.610Z,8.45
2023-03-12T19:37:59.573Z,6.10
2023-03-12T19:40:27.436Z,4.90
2023-03-12T19:42:55.102Z,5.57
2023-03-12T19:45:22.876Z,9.13
2023-03-12T19:47:52.314Z,8.35
2023-03-12T19:50:25.595Z,6.75
2023-03-12T19:52:53.501Z,5.70
2023-03-12T19:55:21.252Z,9.45
2023-03-12T19:57:50.284Z,11.52
2023-03-12T20:00:18.432Z,6.57
2023-03-12T20:02:46.642Z,9.27
2023-03-12T20:05:16.094Z,12.02
2023-03-12T20:07:44.266Z,6.43
2023-03-12T20:10:12.857Z,7.13
2023-03-12T20:12:41.023Z,11.75
2023-03-12T20:15:09.201Z,11.23
2023-03-12T20:17:37.123Z,12.13
2023-03-12T20:20:08.386Z,9.52
2023-03-12T20:22:38.240Z,9.32
2023-03-12T20:25:06.531Z,15.60
2023-03-12T20:27:36.667Z,9.35
2023-03-12T20:30:04.935Z,7.55
2023-03-12T20:32:33.235Z,7.25
2023-03-12T20:35:01.183Z,7.38
2023-03-12T20:37:29.913Z,5.78
2023-03-12T20:39:59.003Z,6.35
2023-03-12T20:42:26.697Z,5.38
2023-03-12T20:44:55.325Z,7.45
2023-03-12T20:47:24.091Z,5.13
2023-03-12T20:49:51.937Z,8.55
2023-03-12T20:52:19.827Z,6.63
2023-03-12T20:54:47.489Z,10.02
2023-03-12T20:57:16.874Z,6.82
2023-03-12T20:59:46.638Z,10.77
2023-03-12T21:02:15.061Z,13.50
2023-03-12T21:04:43.304Z,12.35
2023-03-12T21:07:11.894Z,8.63
2023-03-12T21:09:40.891Z,5.85
2023-03-12T21:12:08.753Z,6.22
2023-03-12T21:14:39.883Z,6.60
2023-03-12T21:17:10.818Z,91.65
2023-03-12T21:19:39.133Z,17.00
2023-03-12T21:22:09.730Z,8.13
2023-03-12T21:24:37.453Z,5.63
2023-03-12T21:27:05.726Z,4.60
2023-03-12T21:29:33.480Z,7.63
2023-03-12T21:32:02.712Z,9.80
2023-03-12T21:34:30.673Z,6.47
2023-03-12T21:36:58.401Z,4.18
2023-03-12T21:39:27.135Z,5.70
2023-03-12T21:41:55.005Z,7.88
2023-03-12T21:44:22.678Z,7.72
2023-03-12T21:46:52.488Z,5.60
2023-03-12T21:49:21.842Z,5.50
2023-03-12T21:51:49.743Z,6.28
2023-03-12T21:54:17.414Z,7.05
2023-03-12T21:56:45.196Z,15.48
2023-03-12T21:59:12.996Z,6.93
2023-03-12T22:01:40.814Z,5.65
2023-03-12T22:04:08.704Z,6.75
2023-03-12T22:06:38.129Z,8.32
2023-03-12T22:09:05.980Z,6.47
2023-03-12T22:11:33.656Z,7.70
2023-03-12T22:14:01.755Z,7.78
2023-03-12T22:16:29.623Z,8.43
2023-03-12T22:18:57.652Z,5.30
2023-03-12T22:21:25.421Z,7.82
2023-03-12T22:23:55.042Z,8.15
2023-03-12T22:26:23.756Z,10.68
2023-03-12T22:28:51.793Z,12.40
2023-03-12T22:31:20.154Z,19.55
2023-03-12T22:33:48.014Z,15.98
2023-03-12T22:36:16.315Z,11.32
2023-03-12T22:38:44.398Z,5.75
2023-03-12T22:41:14.765Z,5.88
2023-03-12T22:43:42.471Z,7.28
2023-03-12T22:46:10.272Z,6.70
2023-03-12T22:48:38.057Z,5.03
2023-03-12T22:51:06.426Z,4.60
2023-03-12T22:53:34.571Z,6.70
2023-03-12T22:56:03.237Z,5.47
2023-03-12T22:58:32.410Z,5.20
2023-03-12T23:01:01.109Z,7.03
2023-03-12T23:03:29.225Z,9.52
2023-03-12T23:05:57.115Z,17.58
2023-03-12T23:08:24.865Z,9.32
2023-03-12T23:10:53.327Z,8.88
2023-03-12T23:13:21.319Z,8.75
2023-03-12T23:15:50.736Z,7.72
2023-03-12T23:18:18.780Z,7.13
2023-03-12T23:20:46.474Z,5.68
2023-03-12T23:23:15.732Z,8.32
2023-03-12T23:25:43.510Z,11.70
2023-03-12T23:28:11.346Z,8.25
2023-03-12T23:30:39.188Z,8.13
2023-03-12T23:33:08.288Z,9.25
2023-03-12T23:35:36.384Z,7.15
2023-03-12T23:38:06.129Z,7.60
2023-03-12T23:40:33.842Z,8.38
2023-03-12T23:43:01.544Z,5.40
2023-03-12T23:45:29.333Z,6.05
2023-03-12T23:47:58.141Z,6.45
2023-03-12T23:50:27.275Z,4.97
2023-03-12T23:52:55.069Z,6.43
2023-03-12T23:55:22.794Z,5.68
2023-03-12T23:57:50.591Z,5.20
